createdAt,value
2022-08-03T00:01:49.183Z,10.35
2022-08-03T00:04:16.905Z,10.90
2022-08-03T00:06:44.579Z,8.02
2022-08-03T00:09:12.590Z,9.15
2022-08-03T00:11:40.195Z,10.02
2022-08-03T00:14:09.070Z,8.38
2022-08-03T00:16:36.713Z,7.57
2022-08-03T00:19:04.645Z,10.02
2022-08-03T00:21:32.086Z,10.65
2022-08-03T00:24:00.331Z,9.98
2022-08-03T00:26:27.740Z,9.45
2022-08-03T00:28:55.324Z,9.70
2022-08-03T00:31:32.217Z,10.45
2022-08-03T00:34:10.310Z,8.82
2022-08-03T00:36:40.297Z,8.98
2022-08-03T00:39:07.733Z,9.93
2022-08-03T00:41:35.193Z,10.30
2022-08-03T00:44:02.648Z,8.57
2022-08-03T00:46:30.065Z,7.82
2022-08-03T00:48:57.628Z,7.03
2022-08-03T00:51:25.759Z,7.35
2022-08-03T00:53:53.234Z,7.90
2022-08-03T00:56:20.773Z,9.98
2022-08-03T00:58:48.317Z,7.55
2022-08-03T01:01:15.867Z,7.93
2022-08-03T01:03:45.280Z,7.40
2022-08-03T01:06:41.282Z,5.95
2022-08-03T01:09:21.130Z,9.85
2022-08-03T01:12:00.643Z,7.65
2022-08-03T01:14:49.423Z,7.88
2022-08-03T01:17:37.217Z,7.40
2022-08-03T01:20:09.769Z,5.68
2022-08-03T01:22:58.661Z,7.63
2022-08-03T01:25:54.731Z,5.63
2022-08-03T01:28:49.425Z,8.43
2022-08-03T01:31:22.808Z,7.72
2022-08-03T01:33:58.151Z,7.20
2022-08-03T01:36:34.181Z,6.45
2022-08-03T01:39:09.679Z,6.70
2022-08-03T01:41:44.800Z,6.80
2022-08-03T01:44:30.155Z,6.53
2022-08-03T01:47:00.803Z,8.25
2022-08-03T01:49:30.682Z,7.00
2022-08-03T01:52:04.858Z,6.55
2022-08-03T01:54:38.417Z,9.20
2022-08-03T01:57:07.400Z,7.10
2022-08-03T01:59:37.123Z,7.25
2022-08-03T02:02:15.485Z,4.55
2022-08-03T02:04:57.914Z,7.18
2022-08-03T02:07:27.265Z,8.07
2022-08-03T02:09:56.183Z,10.43
2022-08-03T02:12:29.020Z,7.57
2022-08-03T02:15:18.313Z,6.78
2022-08-03T02:17:47.988Z,9.15
2022-08-03T02:20:16.593Z,7.10
2022-08-03T02:22:45.743Z,8.30
2022-08-03T02:25:14.967Z,5.93
2022-08-03T02:27:55.589Z,7.25
2022-08-03T02:30:30.556Z,7.28
2022-08-03T02:32:59.770Z,7.03
2022-08-03T02:35:29.981Z,6.38
2022-08-03T02:38:02.784Z,8.13
2022-08-03T02:40:31.714Z,6.30
2022-08-03T02:43:15.876Z,11.20
2022-08-03T02:45:46.246Z,6.93
2022-08-03T02:48:18.194Z,6.18
2022-08-03T02:50:47.870Z,5.05
2022-08-03T02:53:18.042Z,8.00
2022-08-03T02:55:48.078Z,7.75
2022-08-03T02:58:18.971Z,7.40
2022-08-03T03:00:47.484Z,11.38
2022-08-03T03:03:16.173Z,7.82
2022-08-03T03:05:52.939Z,8.50
2022-08-03T03:08:28.608Z,6.65
2022-08-03T03:11:00.059Z,7.53
2022-08-03T03:13:32.701Z,6.90
2022-08-03T03:16:06.426Z,8.50
2022-08-03T03:18:35.394Z,7.40
2022-08-03T03:21:04.394Z,5.85
2022-08-03T03:23:35.917Z,4.80
2022-08-03T03:26:04.439Z,5.72
2022-08-03T03:28:33.239Z,5.07
2022-08-03T03:31:01.321Z,6.85
2022-08-03T03:33:28.878Z,5.28
2022-08-03T03:35:57.977Z,6.53
2022-08-03T03:38:25.577Z,5.20
2022-08-03T03:40:53.205Z,9.70
2022-08-03T03:43:20.780Z,10.63
2022-08-03T03:45:48.495Z,6.65
2022-08-03T03:48:16.606Z,6.05
2022-08-03T03:50:44.573Z,4.82
2022-08-03T03:53:13.979Z,7.47
2022-08-03T03:55:59.317Z,6.13
2022-08-03T03:58:32.234Z,3.90
2022-08-03T04:01:00.769Z,4.72
2022-08-03T04:03:28.787Z,4.07
2022-08-03T04:06:15.570Z,2.97
2022-08-03T04:09:01.546Z,4.43
2022-08-03T04:11:48.042Z,2.45
2022-08-03T04:14:21.162Z,3.88
2022-08-03T04:16:58.294Z,5.07
2022-08-03T04:19:32.785Z,5.18
2022-08-03T04:22:03.854Z,5.57
2022-08-03T04:24:35.587Z,3.30
2022-08-03T04:27:07.085Z,1.95
2022-08-03T04:29:38.512Z,3.17
2022-08-03T04:32:12.842Z,3.72
2022-08-03T04:34:41.082Z,3.25
2022-08-03T04:37:15.216Z,1.45
2022-08-03T04:39:44.872Z,2.47
2022-08-03T04:42:14.396Z,5.38
2022-08-03T04:44:45.549Z,3.38
2022-08-03T04:47:13.013Z,2.83
2022-08-03T04:49:40.993Z,3.17
2022-08-03T04:52:10.391Z,1.63
2022-08-03T04:54:50.295Z,2.17
2022-08-03T04:57:23.045Z,2.67
2022-08-03T05:00:01.362Z,1.88
2022-08-03T05:02:33.805Z,1.50
2022-08-03T05:05:01.363Z,2.63
2022-08-03T05:07:35.459Z,4.57
2022-08-03T05:10:14.760Z,2.08
2022-08-03T05:12:45.863Z,2.63
2022-08-03T05:15:13.527Z,2.22
2022-08-03T05:17:41.086Z,2.17
2022-08-03T05:20:09.129Z,2.90
2022-08-03T05:22:36.624Z,2.75
2022-08-03T05:25:04.405Z,2.17
2022-08-03T05:27:31.910Z,1.38
2022-08-03T05:30:30.360Z,2.05
2022-08-03T05:32:46.865Z,1.70
2022-08-03T05:35:57.301Z,2.15
2022-08-03T05:38:03.689Z,2.65
2022-08-03T05:40:31.440Z,3.35
2022-08-03T05:42:59.323Z,2.10
2022-08-03T05:45:28.528Z,4.32
2022-08-03T05:47:56.317Z,2.80
2022-08-03T05:50:24.057Z,4.30
2022-08-03T05:52:51.479Z,2.33
2022-08-03T05:55:19.326Z,2.75
2022-08-03T05:57:47.390Z,3.10
2022-08-03T06:00:17.394Z,2.45
2022-08-03T06:02:46.558Z,3.33
2022-08-03T06:05:14.108Z,2.30
2022-08-03T06:07:41.669Z,3.08
2022-08-03T06:10:36.658Z,2.22
2022-08-03T06:12:57.146Z,2.15
2022-08-03T06:15:24.845Z,3.00
2022-08-03T06:17:52.733Z,2.15
2022-08-03T06:20:21.179Z,2.30
2022-08-03T06:22:51.379Z,4.03
2022-08-03T06:25:28.091Z,2.92
2022-08-03T06:27:55.479Z,2.08
2022-08-03T06:30:23.003Z,3.65
2022-08-03T06:32:51.695Z,1.55
2022-08-03T06:35:20.383Z,2.83
2022-08-03T06:37:50.130Z,4.05
2022-08-03T06:40:24.318Z,3.08
2022-08-03T06:42:52.126Z,1.85
2022-08-03T06:45:19.633Z,2.58
2022-08-03T06:47:47.065Z,3.20
2022-08-03T06:50:16.877Z,3.80
2022-08-03T06:52:45.638Z,3.38
2022-08-03T06:55:13.141Z,2.75
2022-08-03T06:57:40.558Z,2.17
2022-08-03T07:00:12.187Z,3.20
2022-08-03T07:05:09.733Z,4.50
2022-08-03T07:07:37.499Z,2.33
2022-08-03T07:10:06.488Z,6.35
2022-08-03T07:12:34.988Z,3.25
2022-08-03T07:15:04.177Z,3.67
2022-08-03T07:17:34.927Z,3.00
2022-08-03T07:20:05.243Z,5.35
2022-08-03T07:22:33.035Z,2.13
2022-08-03T07:25:00.803Z,3.78
2022-08-03T07:27:29.575Z,2.50
2022-08-03T07:30:00.031Z,2.47
2022-08-03T07:32:28.845Z,3.05
2022-08-03T07:35:00.490Z,3.88
2022-08-03T07:37:29.431Z,2.50
2022-08-03T07:39:57.088Z,5.13
2022-08-03T07:42:24.574Z,2.60
2022-08-03T07:44:51.953Z,2.22
2022-08-03T07:47:25.329Z,3.85
2022-08-03T07:50:02.578Z,3.90
2022-08-03T07:52:48.460Z,1.65
2022-08-03T07:55:17.359Z,2.20
2022-08-03T07:57:45.164Z,2.60
2022-08-03T08:00:18.656Z,5.97
2022-08-03T08:02:46.648Z,2.72
2022-08-03T08:05:14.177Z,3.50
2022-08-03T08:07:41.709Z,2.65
2022-08-03T08:10:10.443Z,2.97
2022-08-03T08:12:41.023Z,2.88
2022-08-03T08:15:09.974Z,1.58
2022-08-03T08:17:55.844Z,4.30
2022-08-03T08:20:31.797Z,2.40
2022-08-03T08:23:02.733Z,3.67
2022-08-03T08:25:31.978Z,4.45
2022-08-03T08:28:29.785Z,5.65
2022-08-03T08:30:51.986Z,4.80
2022-08-03T08:33:22.606Z,4.28
2022-08-03T08:35:50.400Z,5.03
2022-08-03T08:38:17.771Z,6.93
2022-08-03T08:40:46.039Z,11.40
2022-08-03T08:43:13.521Z,6.88
2022-08-03T08:45:43.051Z,6.53
2022-08-03T08:48:13.406Z,6.95
2022-08-03T08:50:41.198Z,7.15
2022-08-03T08:53:18.325Z,9.00
2022-08-03T08:55:59.206Z,9.50
2022-08-03T08:58:37.085Z,9.20
2022-08-03T09:01:04.976Z,8.43
2022-08-03T09:03:34.656Z,5.65
2022-08-03T09:06:02.701Z,6.78
2022-08-03T09:08:32.023Z,4.65
2022-08-03T09:10:59.927Z,4.72
2022-08-03T09:13:27.537Z,7.10
2022-08-03T09:16:11.190Z,6.75
2022-08-03T09:18:39.265Z,8.18
2022-08-03T09:21:34.128Z,8.25
2022-08-03T09:24:05.685Z,9.23
2022-08-03T09:26:36.697Z,7.57
2022-08-03T09:29:13.236Z,9.95
2022-08-03T09:31:47.148Z,9.57
2022-08-03T09:36:50.866Z,7.53
2022-08-03T09:39:40.467Z,6.93
2022-08-03T09:42:14.973Z,8.45
2022-08-03T09:44:45.477Z,10.50
2022-08-03T09:47:16.183Z,9.77
2022-08-03T09:49:57.805Z,10.07
2022-08-03T09:52:52.314Z,8.57
2022-08-03T09:56:34.480Z,5.05
2022-08-03T09:58:14.585Z,9.90
2022-08-03T10:01:04.448Z,8.10
2022-08-03T10:04:02.703Z,9.70
2022-08-03T10:06:28.952Z,10.27
2022-08-03T10:09:11.638Z,11.63
2022-08-03T10:11:42.028Z,7.03
2022-08-03T10:14:19.493Z,9.52
2022-08-03T10:16:48.815Z,7.00
2022-08-03T10:19:17.005Z,8.43
2022-08-03T10:21:50.872Z,9.50
2022-08-03T10:24:24.898Z,7.18
2022-08-03T10:26:54.320Z,8.32
2022-08-03T10:29:25.478Z,9.48
2022-08-03T10:31:58.432Z,6.85
2022-08-03T10:34:35.415Z,5.68
2022-08-03T10:37:08.683Z,10.77
2022-08-03T10:39:37.039Z,7.72
2022-08-03T10:42:06.098Z,7.00
2022-08-03T10:44:42.994Z,7.20
2022-08-03T10:47:11.597Z,5.95
2022-08-03T10:49:39.697Z,5.85
2022-08-03T10:52:13.114Z,5.40
2022-08-03T10:55:03.244Z,6.20
2022-08-03T10:57:58.496Z,6.03
2022-08-03T11:00:30.495Z,5.97
2022-08-03T11:03:14.396Z,6.45
2022-08-03T11:05:47.296Z,5.50
2022-08-03T11:08:37.094Z,8.27
2022-08-03T11:11:20.292Z,4.88
2022-08-03T11:14:05.721Z,6.28
2022-08-03T11:16:39.105Z,6.72
2022-08-03T11:19:11.210Z,8.18
2022-08-03T11:21:51.317Z,8.05
2022-08-03T11:24:37.092Z,6.40
2022-08-03T11:27:19.957Z,6.50
2022-08-03T11:30:07.454Z,7.65
2022-08-03T11:32:38.346Z,8.43
2022-08-03T11:35:26.238Z,7.85
2022-08-03T11:38:04.396Z,4.28
2022-08-03T11:40:48.840Z,7.63
2022-08-03T11:43:22.538Z,11.18
2022-08-03T11:46:03.346Z,8.77
2022-08-03T11:48:46.291Z,12.90
2022-08-03T11:51:25.678Z,11.18
2022-08-03T11:53:58.250Z,8.55
2022-08-03T11:56:26.250Z,7.85
2022-08-03T11:59:15.277Z,9.48
2022-08-03T12:01:46.291Z,8.02
2022-08-03T12:04:13.759Z,7.68
2022-08-03T12:06:56.323Z,7.55
2022-08-03T12:09:23.713Z,8.23
2022-08-03T12:11:59.383Z,6.50
2022-08-03T12:14:49.049Z,8.38
2022-08-03T12:17:17.704Z,10.60
2022-08-03T12:19:45.515Z,12.18
2022-08-03T12:22:13.813Z,7.93
2022-08-03T12:24:46.782Z,8.55
2022-08-03T12:27:25.017Z,10.07
2022-08-03T12:29:58.582Z,10.48
2022-08-03T12:32:28.594Z,11.15
2022-08-03T12:35:02.043Z,10.88
2022-08-03T12:37:32.275Z,13.50
2022-08-03T12:40:09.357Z,12.63
2022-08-03T12:42:40.179Z,13.70
2022-08-03T12:45:21.285Z,11.77
2022-08-03T12:47:56.163Z,7.75
2022-08-03T12:50:31.454Z,10.75
2022-08-03T12:53:01.215Z,7.90
2022-08-03T12:55:56.645Z,5.85
2022-08-03T12:58:43.720Z,8.55
2022-08-03T13:01:13.900Z,9.82
2022-08-03T13:03:50.361Z,10.57
2022-08-03T13:06:25.463Z,9.05
2022-08-03T13:09:04.805Z,9.03
2022-08-03T13:11:57.982Z,10.57
2022-08-03T13:14:20.632Z,7.55
2022-08-03T13:16:49.667Z,8.93
2022-08-03T13:19:21.145Z,7.35
2022-08-03T13:21:53.440Z,9.73
2022-08-03T13:24:32.305Z,8.45
2022-08-03T13:27:00.989Z,9.35
2022-08-03T13:29:48.430Z,7.18
2022-08-03T13:32:15.958Z,7.07
2022-08-03T13:34:43.496Z,7.50
2022-08-03T13:37:12.428Z,6.60
2022-08-03T13:39:58.055Z,6.95
2022-08-03T13:42:35.467Z,7.85
2022-08-03T13:45:04.338Z,9.15
2022-08-03T13:47:34.372Z,6.78
2022-08-03T13:50:03.068Z,9.55
2022-08-03T13:52:36.801Z,6.93
2022-08-03T13:55:06.352Z,6.68
2022-08-03T13:58:05.826Z,6.75
2022-08-03T14:00:28.585Z,7.45
2022-08-03T14:03:12.588Z,5.38
2022-08-03T14:05:42.209Z,4.72
2022-08-03T14:08:10.252Z,7.30
2022-08-03T14:10:40.488Z,5.93
2022-08-03T14:13:08.804Z,5.47
2022-08-03T14:15:37.294Z,7.32
2022-08-03T14:18:15.850Z,5.38
2022-08-03T14:20:56.346Z,4.32
2022-08-03T14:23:25.246Z,5.47
2022-08-03T14:25:53.157Z,6.10
2022-08-03T14:28:24.712Z,8.50
2022-08-03T14:30:53.297Z,9.07
2022-08-03T14:33:21.174Z,5.68
2022-08-03T14:35:49.164Z,8.75
2022-08-03T14:38:17.441Z,10.88
2022-08-03T14:40:45.132Z,6.72
2022-08-03T14:43:12.839Z,7.75
2022-08-03T14:45:40.872Z,14.13
2022-08-03T14:50:12.592Z,6.68
2022-08-03T14:50:57.880Z,7.57
2022-08-03T14:53:25.366Z,5.13
2022-08-03T14:55:53.683Z,8.93
2022-08-03T14:58:22.806Z,5.30
2022-08-03T15:00:51.977Z,7.30
2022-08-03T15:03:24.003Z,6.80
2022-08-03T15:05:56.416Z,5.68
2022-08-03T15:08:25.311Z,3.33
2022-08-03T15:10:54.497Z,8.90
2022-08-03T15:13:22.474Z,8.30
2022-08-03T15:15:50.232Z,11.95
2022-08-03T15:18:17.794Z,5.80
2022-08-03T15:20:46.690Z,6.78
2022-08-03T15:23:16.291Z,11.18
2022-08-03T15:26:29.454Z,5.57
2022-08-03T15:28:32.797Z,9.02
2022-08-03T15:31:01.370Z,6.88
2022-08-03T15:33:29.763Z,6.30
2022-08-03T15:35:57.518Z,7.88
2022-08-03T15:38:26.232Z,8.38
2022-08-03T15:40:55.590Z,6.00
2022-08-03T15:43:24.146Z,7.45
2022-08-03T15:46:12.803Z,7.80
2022-08-03T15:48:40.753Z,7.03
2022-08-03T15:51:09.259Z,12.65
2022-08-03T15:53:37.764Z,7.03
2022-08-03T15:56:11.318Z,6.97
2022-08-03T15:59:09.483Z,7.60
2022-08-03T16:01:30.077Z,4.75
2022-08-03T16:03:57.695Z,6.18
2022-08-03T16:06:34.660Z,5.53
2022-08-03T16:09:23.899Z,7.03
2022-08-03T16:11:56.251Z,6.75
2022-08-03T16:14:32.281Z,8.55
2022-08-03T16:17:04.277Z,7.22
2022-08-03T16:19:31.794Z,5.70
2022-08-03T16:21:59.356Z,7.25
2022-08-03T16:24:28.618Z,8.27
2022-08-03T16:26:57.050Z,6.38
2022-08-03T16:29:24.506Z,6.55
2022-08-03T16:31:52.692Z,10.30
2022-08-03T16:34:20.679Z,5.38
2022-08-03T16:36:48.250Z,7.75
2022-08-03T16:39:15.959Z,6.88
2022-08-03T16:41:54.029Z,10.18
2022-08-03T16:44:30.909Z,5.80
2022-08-03T16:46:59.721Z,10.93
2022-08-03T16:49:54.658Z,5.93
2022-08-03T16:52:16.757Z,7.18
2022-08-03T16:54:52.735Z,8.57
2022-08-03T16:57:55.680Z,4.85
2022-08-03T17:00:34.283Z,4.75
2022-08-03T17:03:04.365Z,5.55
2022-08-03T17:05:46.971Z,3.78
2022-08-03T17:08:16.384Z,5.35
2022-08-03T17:10:53.982Z,3.38
2022-08-03T17:13:22.880Z,4.35
2022-08-03T17:16:01.326Z,4.25
2022-08-03T17:18:35.649Z,3.15
2022-08-03T17:21:07.999Z,2.97
2022-08-03T17:23:57.625Z,4.60
2022-08-03T17:26:30.595Z,3.42
2022-08-03T17:29:12.932Z,4.05
2022-08-03T17:31:48.944Z,4.78
2022-08-03T17:34:18.720Z,3.67
2022-08-03T17:37:04.096Z,2.38
2022-08-03T17:39:57.738Z,3.38
2022-08-03T17:42:30.324Z,4.22
2022-08-03T17:45:02.119Z,3.50
2022-08-03T17:47:42.133Z,5.25
2022-08-03T17:50:24.539Z,3.72
2022-08-03T17:53:06.854Z,2.58
2022-08-03T17:55:55.232Z,5.20
2022-08-03T17:58:55.193Z,2.08
2022-08-03T18:02:00.769Z,5.50
2022-08-03T18:04:41.302Z,2.70
2022-08-03T18:07:12.625Z,2.65
2022-08-03T18:10:03.699Z,3.17
2022-08-03T18:12:51.890Z,3.38
2022-08-03T18:15:30.441Z,2.92
2022-08-03T18:18:10.377Z,2.53
2022-08-03T18:20:42.008Z,3.53
2022-08-03T18:23:20.651Z,3.08
2022-08-03T18:26:05.637Z,3.72
2022-08-03T18:28:35.862Z,4.43
2022-08-03T18:31:05.993Z,2.95
2022-08-03T18:34:20.037Z,2.38
2022-08-03T18:36:30.127Z,1.73
2022-08-03T18:39:02.990Z,3.63
2022-08-03T18:41:34.624Z,4.63
2022-08-03T18:44:37.243Z,2.75
2022-08-03T18:47:50.726Z,3.25
2022-08-03T18:50:30.576Z,2.65
2022-08-03T18:53:03.072Z,4.75
2022-08-03T18:55:33.751Z,4.15
2022-08-03T19:01:57.996Z,2.40
2022-08-03T19:04:25.300Z,4.95
2022-08-03T19:07:02.848Z,2.58
2022-08-03T19:09:49.580Z,2.95
2022-08-03T19:12:30.602Z,2.50
2022-08-03T19:15:05.942Z,3.40
2022-08-03T19:17:53.626Z,2.78
2022-08-03T19:20:25.060Z,4.18
2022-08-03T19:22:54.739Z,4.18
2022-08-03T19:25:34.534Z,2.90
2022-08-03T19:28:07.353Z,3.97
2022-08-03T19:35:58.358Z,3.72
2022-08-03T19:41:18.023Z,3.25
2022-08-03T19:44:02.098Z,4.07
2022-08-03T19:46:37.833Z,4.78
2022-08-03T19:49:14.596Z,4.95
2022-08-03T19:51:59.041Z,4.70
2022-08-03T19:54:52.768Z,4.28
2022-08-03T19:57:25.006Z,4.25
2022-08-03T19:59:54.402Z,4.25
2022-08-03T20:02:27.125Z,6.07
2022-08-03T20:04:59.579Z,4.07
2022-08-03T20:07:48.437Z,2.47
2022-08-03T20:10:18.131Z,4.68
2022-08-03T20:12:47.581Z,4.07
2022-08-03T20:15:18.111Z,5.47
2022-08-03T20:17:54.882Z,4.60
2022-08-03T20:20:29.454Z,3.35
2022-08-03T20:22:59.513Z,7.05
2022-08-03T20:25:38.089Z,5.85
2022-08-03T20:28:15.073Z,5.80
2022-08-03T20:30:47.187Z,5.75
2022-08-03T20:33:18.818Z,5.50
2022-08-03T20:35:49.679Z,7.85
2022-08-03T20:38:20.379Z,4.38
2022-08-03T20:40:55.021Z,6.63
2022-08-03T20:43:26.764Z,6.97
2022-08-03T20:46:00.077Z,5.70
2022-08-03T20:48:43.475Z,6.63
2022-08-03T20:51:20.151Z,10.77
2022-08-03T20:54:09.659Z,5.20
2022-08-03T20:56:53.726Z,7.70
2022-08-03T20:59:21.686Z,5.28
2022-08-03T21:01:49.185Z,5.95
2022-08-03T21:04:20.947Z,6.72
2022-08-03T21:06:57.438Z,5.45
2022-08-03T21:09:33.478Z,6.18
2022-08-03T21:12:13.165Z,5.30
2022-08-03T21:13:02.596Z,2.78
2022-08-03T21:13:10.126Z,3.03
2022-08-03T21:13:10.907Z,3.17
2022-08-03T21:14:52.540Z,5.55
2022-08-03T21:17:39.216Z,8.52
2022-08-03T21:20:12.421Z,4.93
2022-08-03T21:22:44.087Z,5.30
2022-08-03T21:25:15.034Z,5.80
2022-08-03T21:27:42.551Z,7.95
2022-08-03T21:30:11.446Z,5.20
2022-08-03T21:32:40.681Z,4.75
2022-08-03T21:35:12.943Z,6.63
2022-08-03T21:37:41.885Z,7.75
2022-08-03T21:40:12.482Z,6.20
2022-08-03T21:42:41.703Z,5.03
2022-08-03T21:45:16.875Z,8.57
2022-08-03T21:47:46.046Z,7.55
2022-08-03T21:50:13.967Z,6.40
2022-08-03T21:52:45.308Z,7.00
2022-08-03T21:55:20.332Z,6.20
2022-08-03T21:57:53.316Z,7.55
2022-08-03T22:00:23.411Z,7.32
2022-08-03T22:02:57.166Z,5.95
2022-08-03T22:05:28.874Z,5.20
2022-08-03T22:08:13.112Z,9.32
2022-08-03T22:10:43.438Z,5.53
2022-08-03T22:13:13.283Z,8.70
2022-08-03T22:15:41.263Z,5.95
2022-08-03T22:18:09.599Z,5.30
2022-08-03T22:20:37.260Z,5.63
2022-08-03T22:23:06.850Z,7.38
2022-08-03T22:25:39.110Z,6.95
2022-08-03T22:28:10.309Z,4.18
2022-08-03T22:30:39.302Z,8.00
2022-08-03T22:33:11.208Z,4.03
2022-08-03T22:35:47.953Z,6.07
2022-08-03T22:38:18.311Z,8.77
2022-08-03T22:40:49.094Z,4.43
2022-08-03T22:43:17.290Z,4.22
2022-08-03T22:46:10.138Z,3.38
2022-08-03T22:48:41.029Z,5.70
2022-08-03T22:51:09.735Z,3.88
2022-08-03T22:53:38.745Z,4.53
2022-08-03T22:56:07.085Z,3.78
2022-08-03T22:58:34.551Z,5.47
2022-08-03T23:01:08.723Z,4.13
2022-08-03T23:04:01.221Z,8.75
2022-08-03T23:06:35.980Z,5.35
2022-08-03T23:09:10.098Z,5.93
2022-08-03T23:11:46.153Z,3.28
2022-08-03T23:14:16.888Z,4.30
2022-08-03T23:16:46.136Z,6.15
2022-08-03T23:19:17.149Z,4.43
2022-08-03T23:22:02.827Z,4.88
2022-08-03T23:24:35.990Z,5.97
2022-08-03T23:27:05.765Z,5.80
2022-08-03T23:29:38.769Z,8.73
2022-08-03T23:32:07.256Z,14.40
2022-08-03T23:34:53.492Z,12.27
2022-08-03T23:37:21.268Z,11.90
2022-08-03T23:39:49.351Z,13.95
2022-08-03T23:42:19.521Z,7.35
2022-08-03T23:44:47.388Z,8.00
2022-08-03T23:47:15.539Z,6.35
2022-08-03T23:49:43.191Z,7.50
2022-08-03T23:52:21.822Z,5.90
2022-08-03T23:55:15.156Z,6.30
2022-08-03T23:58:01.751Z,9.20
